La Crosse, Arkansas
Current Conditions -  °F | °C
As of 11:55 PM on Friday 19 Dec 2014 (Local Time) from KBVX Reporting Station
Overcast Overcast  
Wind Chill: 37°   Ceiling: 5500
Heat Index: 37°   Visibility: 10mi
Dew Point: 32°   Wind: 0mph
Humidity: 81%   Direction: NA
Pressure: 30.24"   Gusts: NA
Location:  36.1613°N, 91.8521°W
Report Text: KBVX 200555Z AUTO 00000KT 10SM OVC055 03/00 A3024 RMK AO1 10040 20030 57003
Loading
Personal Weather Stations






























Interactive Weather Map New forecast layout! Learn more

10-Day Weather Forecast

Advertisements
Track Severe Weather on mobile